createdAt,value
2022-11-09T00:01:04.208Z,48.67
2022-11-09T00:03:31.589Z,48.25
2022-11-09T00:05:59.246Z,59.65
2022-11-09T00:08:26.873Z,61.23
2022-11-09T00:10:54.127Z,62.13
2022-11-09T00:13:22.642Z,57.83
2022-11-09T00:15:50.205Z,65.68
2022-11-09T00:18:17.492Z,56.88
2022-11-09T00:20:47.931Z,60.93
2022-11-09T00:23:17.110Z,66.22
2022-11-09T00:25:44.890Z,72.15
2022-11-09T00:28:12.288Z,67.47
2022-11-09T00:30:40.114Z,60.80
2022-11-09T00:33:07.795Z,58.07
2022-11-09T00:35:38.275Z,67.15
2022-11-09T00:38:05.670Z,75.35
2022-11-09T00:40:32.950Z,58.50
2022-11-09T00:43:00.270Z,56.25
2022-11-09T00:45:27.519Z,53.33
2022-11-09T00:47:55.091Z,53.03
2022-11-09T00:50:22.300Z,61.45
2022-11-09T00:52:49.662Z,58.05
2022-11-09T00:55:17.135Z,59.67
2022-11-09T00:57:44.399Z,49.07
2022-11-09T01:00:12.280Z,58.00
2022-11-09T01:02:39.601Z,55.10
2022-11-09T01:05:07.095Z,60.28
2022-11-09T01:07:34.439Z,60.38
2022-11-09T01:10:01.707Z,53.83
2022-11-09T01:12:28.980Z,55.28
2022-11-09T01:14:56.189Z,48.20
2022-11-09T01:17:23.614Z,54.58
2022-11-09T01:19:50.849Z,58.53
2022-11-09T01:22:19.184Z,59.30
2022-11-09T01:24:48.169Z,52.78
2022-11-09T01:27:16.856Z,59.83
2022-11-09T01:29:44.095Z,57.97
2022-11-09T01:32:11.419Z,54.70
2022-11-09T01:34:40.852Z,54.90
2022-11-09T01:37:08.132Z,51.92
2022-11-09T01:39:35.739Z,56.85
2022-11-09T01:42:03.433Z,54.22
2022-11-09T01:44:30.979Z,68.55
2022-11-09T01:47:00.877Z,67.27
2022-11-09T01:49:41.079Z,60.17
2022-11-09T01:52:21.177Z,60.08
2022-11-09T01:54:50.557Z,63.10
2022-11-09T01:57:30.611Z,52.92
2022-11-09T02:00:07.651Z,61.73
2022-11-09T02:02:43.357Z,49.42
2022-11-09T02:05:13.001Z,62.80
2022-11-09T02:07:40.721Z,54.88
2022-11-09T02:10:35.771Z,54.28
2022-11-09T02:13:03.412Z,58.13
2022-11-09T02:15:39.157Z,58.47
2022-11-09T02:18:11.416Z,65.68
2022-11-09T02:20:52.347Z,61.58
2022-11-09T02:23:22.975Z,53.90
2022-11-09T02:25:54.356Z,68.13
2022-11-09T02:28:21.703Z,65.35
2022-11-09T02:30:50.588Z,52.42
2022-11-09T02:33:18.203Z,50.60
2022-11-09T02:35:46.213Z,62.85
2022-11-09T02:38:14.311Z,57.27
2022-11-09T02:40:43.748Z,58.08
2022-11-09T02:43:11.100Z,67.40
2022-11-09T02:45:38.730Z,54.83
2022-11-09T02:48:06.692Z,53.03
2022-11-09T02:50:37.180Z,49.07
2022-11-09T02:53:06.214Z,54.17
2022-11-09T02:55:36.872Z,50.67
2022-11-09T02:58:04.336Z,57.40
2022-11-09T03:00:32.067Z,52.20
2022-11-09T03:03:00.148Z,52.77
2022-11-09T03:05:27.382Z,50.95
2022-11-09T03:07:55.268Z,52.42
2022-11-09T03:10:23.470Z,49.22
2022-11-09T03:12:51.725Z,55.08
2022-11-09T03:15:19.056Z,53.70
2022-11-09T03:17:46.926Z,56.72
2022-11-09T03:20:14.855Z,58.17
2022-11-09T03:22:42.954Z,58.95
2022-11-09T03:25:10.397Z,49.55
2022-11-09T03:27:37.989Z,53.50
2022-11-09T03:30:06.113Z,45.22
2022-11-09T03:32:33.478Z,59.00
2022-11-09T03:35:00.843Z,56.30
2022-11-09T03:37:29.098Z,51.47
2022-11-09T03:39:58.548Z,49.03
2022-11-09T03:42:27.087Z,52.65
2022-11-09T03:44:55.271Z,51.67
2022-11-09T03:47:22.670Z,55.22
2022-11-09T03:49:49.935Z,55.03
2022-11-09T03:52:17.296Z,49.33
2022-11-09T03:54:44.648Z,55.63
2022-11-09T03:57:12.006Z,59.03
2022-11-09T03:59:39.278Z,55.58
2022-11-09T04:02:06.721Z,51.17
2022-11-09T04:04:34.087Z,46.67
2022-11-09T04:07:01.501Z,54.28
2022-11-09T04:09:28.862Z,50.28
2022-11-09T04:11:56.240Z,48.33
2022-11-09T04:14:23.462Z,48.90
2022-11-09T04:16:50.844Z,44.60
2022-11-09T04:19:18.039Z,49.47
2022-11-09T04:21:45.774Z,51.35
2022-11-09T04:24:13.271Z,48.60
2022-11-09T04:26:41.399Z,51.33
2022-11-09T04:29:08.634Z,43.07
2022-11-09T04:31:35.956Z,53.03
2022-11-09T04:34:03.747Z,42.60
2022-11-09T04:36:31.491Z,44.78
2022-11-09T04:38:58.781Z,45.15
2022-11-09T04:41:27.209Z,44.80
2022-11-09T04:43:54.472Z,52.38
2022-11-09T04:46:21.812Z,48.80
2022-11-09T04:48:49.140Z,46.50
2022-11-09T04:51:16.428Z,49.55
2022-11-09T04:53:44.256Z,49.83
2022-11-09T04:56:11.829Z,49.17
2022-11-09T04:58:39.199Z,45.22
2022-11-09T05:01:13.810Z,47.08
2022-11-09T05:03:41.298Z,48.35
2022-11-09T05:06:27.449Z,51.73
2022-11-09T05:08:54.995Z,50.88
2022-11-09T05:11:22.707Z,51.53
2022-11-09T05:13:51.670Z,50.55
2022-11-09T05:16:20.273Z,53.65
2022-11-09T05:18:47.611Z,43.33
2022-11-09T05:21:15.073Z,43.13
2022-11-09T05:24:00.708Z,49.05
2022-11-09T05:26:39.049Z,48.58
2022-11-09T05:29:08.319Z,47.10
2022-11-09T05:31:36.536Z,50.10
2022-11-09T05:34:04.625Z,51.03
2022-11-09T05:36:33.644Z,58.22
2022-11-09T05:39:01.231Z,49.70
2022-11-09T05:41:28.758Z,46.88
2022-11-09T05:43:56.118Z,46.00
2022-11-09T05:46:23.403Z,43.95
2022-11-09T05:48:50.726Z,46.83
2022-11-09T05:51:18.338Z,47.05
2022-11-09T05:53:47.029Z,44.83
2022-11-09T05:56:14.986Z,45.67
2022-11-09T05:58:42.915Z,44.70
2022-11-09T06:01:12.869Z,38.92
2022-11-09T06:03:42.259Z,50.28
2022-11-09T06:06:11.026Z,52.05
2022-11-09T06:08:38.785Z,48.43
2022-11-09T06:11:08.363Z,52.70
2022-11-09T06:13:36.589Z,44.15
2022-11-09T06:16:10.070Z,50.20
2022-11-09T06:18:37.803Z,54.83
2022-11-09T06:21:06.333Z,53.87
2022-11-09T06:23:34.763Z,50.63
2022-11-09T06:26:06.696Z,59.10
2022-11-09T06:29:46.219Z,56.15
2022-11-09T06:32:14.450Z,51.10
2022-11-09T06:34:44.564Z,50.00
2022-11-09T06:37:12.818Z,53.55
2022-11-09T06:39:44.157Z,52.33
2022-11-09T06:42:12.269Z,55.80
2022-11-09T06:44:59.993Z,46.22
2022-11-09T06:47:30.639Z,50.03
2022-11-09T06:50:00.496Z,47.13
2022-11-09T06:52:32.004Z,54.30
2022-11-09T06:55:00.264Z,54.10
2022-11-09T06:57:34.038Z,51.05
2022-11-09T07:03:00.912Z,49.15
2022-11-09T07:05:29.717Z,44.80
2022-11-09T07:08:03.675Z,48.05
2022-11-09T07:11:09.499Z,52.90
2022-11-09T07:13:43.098Z,47.87
2022-11-09T07:16:21.031Z,46.45
2022-11-09T07:19:00.726Z,48.42
2022-11-09T07:21:43.584Z,45.15
2022-11-09T07:24:18.952Z,46.78
2022-11-09T07:27:17.610Z,50.27
2022-11-09T07:29:51.626Z,50.55
2022-11-09T07:35:24.207Z,43.67
2022-11-09T07:37:52.327Z,48.33
2022-11-09T07:40:20.129Z,42.20
2022-11-09T07:42:48.495Z,50.53
2022-11-09T07:45:19.145Z,52.92
2022-11-09T07:47:47.148Z,41.70
2022-11-09T07:50:15.285Z,46.55
2022-11-09T07:52:43.748Z,45.03
2022-11-09T07:55:12.274Z,44.13
2022-11-09T07:57:39.695Z,47.25
2022-11-09T08:00:08.060Z,42.67
2022-11-09T08:02:39.923Z,41.55
2022-11-09T08:08:45.509Z,44.33
2022-11-09T08:11:13.593Z,42.88
2022-11-09T08:13:41.232Z,39.83
2022-11-09T08:16:09.471Z,45.13
2022-11-09T08:18:37.017Z,40.60
2022-11-09T08:21:04.717Z,39.38
2022-11-09T08:23:32.293Z,43.70
2022-11-09T08:26:02.748Z,34.25
2022-11-09T08:28:30.189Z,36.88
2022-11-09T08:31:10.429Z,39.57
2022-11-09T08:33:39.423Z,38.92
2022-11-09T08:36:15.147Z,38.65
2022-11-09T08:38:43.306Z,43.58
2022-11-09T08:41:13.667Z,38.33
2022-11-09T08:43:42.733Z,38.10
2022-11-09T08:46:10.299Z,36.70
2022-11-09T08:48:37.968Z,45.72
2022-11-09T08:51:05.865Z,40.45
2022-11-09T08:53:33.505Z,44.22
2022-11-09T08:56:01.357Z,37.27
2022-11-09T08:58:28.844Z,39.85
2022-11-09T09:00:57.245Z,41.75
2022-11-09T09:03:24.954Z,38.75
2022-11-09T09:05:52.856Z,37.47
2022-11-09T09:08:23.507Z,35.37
2022-11-09T09:10:51.627Z,38.35
2022-11-09T09:13:27.500Z,39.42
2022-11-09T09:15:58.260Z,40.67
2022-11-09T09:18:25.887Z,39.80
2022-11-09T09:20:53.393Z,38.93
2022-11-09T09:23:21.544Z,39.78
2022-11-09T09:25:49.204Z,38.35
2022-11-09T09:28:16.775Z,35.40
2022-11-09T09:30:47.441Z,36.92
2022-11-09T09:33:17.795Z,35.60
2022-11-09T09:35:45.182Z,36.35
2022-11-09T09:38:12.659Z,32.58
2022-11-09T09:40:48.777Z,26.92
2022-11-09T09:43:21.377Z,34.08
2022-11-09T09:45:53.291Z,34.13
2022-11-09T09:48:35.379Z,29.60
2022-11-09T09:51:17.313Z,30.02
2022-11-09T09:53:47.802Z,28.02
2022-11-09T09:56:25.257Z,35.38
2022-11-09T09:59:21.245Z,34.70
2022-11-09T10:01:48.905Z,28.88
2022-11-09T10:04:33.851Z,29.77
2022-11-09T10:07:14.773Z,32.55
2022-11-09T10:10:13.029Z,32.30
2022-11-09T10:12:49.529Z,30.20
2022-11-09T10:15:27.180Z,30.00
2022-11-09T10:18:18.374Z,30.88
2022-11-09T10:20:52.692Z,27.48
2022-11-09T10:23:36.061Z,31.75
2022-11-09T10:26:21.733Z,30.37
2022-11-09T10:31:46.218Z,33.45
2022-11-09T10:34:17.692Z,28.83
2022-11-09T10:36:59.017Z,26.13
2022-11-09T10:39:27.759Z,29.60
2022-11-09T10:42:13.529Z,32.15
2022-11-09T10:45:01.157Z,28.05
2022-11-09T10:47:51.990Z,29.95
2022-11-09T10:50:47.801Z,30.25
2022-11-09T10:53:34.250Z,28.87
2022-11-09T10:56:21.759Z,26.88
2022-11-09T10:59:45.517Z,29.90
2022-11-09T11:02:39.404Z,27.08
2022-11-09T11:05:27.673Z,25.48
2022-11-09T11:08:22.399Z,33.63
2022-11-09T11:11:33.201Z,29.80
2022-11-09T11:14:31.013Z,31.13
2022-11-09T11:17:30.153Z,28.55
2022-11-09T11:20:34.994Z,30.83
2022-11-09T11:23:21.927Z,29.83
2022-11-09T11:26:23.737Z,29.83
2022-11-09T11:29:21.598Z,25.13
2022-11-09T11:32:14.024Z,30.60
2022-11-09T11:35:01.302Z,29.95
2022-11-09T11:38:27.657Z,28.00
2022-11-09T11:41:32.497Z,26.20
2022-11-09T11:44:27.282Z,31.15
2022-11-09T11:47:25.515Z,30.60
2022-11-09T11:50:36.456Z,28.13
2022-11-09T11:53:43.303Z,28.10
2022-11-09T11:57:07.144Z,27.08
2022-11-09T12:00:15.484Z,25.02
2022-11-09T12:03:50.442Z,25.33
2022-11-09T12:06:49.071Z,28.23
2022-11-09T12:09:49.150Z,23.40
2022-11-09T12:12:38.871Z,26.13
2022-11-09T12:15:43.870Z,26.92
2022-11-09T12:18:59.174Z,32.00
2022-11-09T12:22:03.977Z,28.45
2022-11-09T12:25:10.305Z,29.20
2022-11-09T12:28:15.205Z,28.38
2022-11-09T12:31:18.993Z,28.05
2022-11-09T12:34:13.478Z,33.58
2022-11-09T12:37:04.996Z,31.63
2022-11-09T12:39:55.439Z,33.43
2022-11-09T12:43:03.225Z,31.52
2022-11-09T12:45:50.308Z,36.45
2022-11-09T12:48:36.248Z,33.40
2022-11-09T12:51:22.541Z,33.45
2022-11-09T12:54:11.554Z,33.40
2022-11-09T12:57:03.473Z,32.78
2022-11-09T12:59:59.694Z,32.78
2022-11-09T13:02:56.537Z,29.85
2022-11-09T13:05:43.387Z,30.00
2022-11-09T13:08:30.507Z,32.57
2022-11-09T13:11:39.047Z,31.05
2022-11-09T13:14:31.237Z,30.40
2022-11-09T13:17:26.406Z,33.05
2022-11-09T13:20:57.931Z,26.50
2022-11-09T13:24:03.633Z,29.37
2022-11-09T13:26:55.625Z,33.22
2022-11-09T13:29:41.516Z,28.77
2022-11-09T13:32:33.494Z,28.30
2022-11-09T13:35:40.204Z,25.25
2022-11-09T13:38:27.268Z,26.87
2022-11-09T13:41:34.882Z,27.17
2022-11-09T13:44:32.957Z,25.83
2022-11-09T13:47:23.193Z,28.73
2022-11-09T13:50:16.764Z,27.42
2022-11-09T13:53:03.480Z,26.80
2022-11-09T13:55:49.307Z,27.65
2022-11-09T13:58:38.961Z,25.80
2022-11-09T14:01:24.970Z,25.77
2022-11-09T14:04:36.668Z,26.48
2022-11-09T14:07:26.076Z,23.80
2022-11-09T14:10:26.615Z,26.23
2022-11-09T14:13:12.635Z,27.88
2022-11-09T14:16:02.292Z,25.75
2022-11-09T14:19:18.511Z,24.25
2022-11-09T14:22:18.774Z,25.13
2022-11-09T14:25:26.128Z,26.08
2022-11-09T14:28:34.217Z,27.02
2022-11-09T14:31:28.121Z,28.10
2022-11-09T14:34:17.426Z,28.15
2022-11-09T14:37:06.071Z,31.60
2022-11-09T14:39:54.251Z,34.08
2022-11-09T14:42:45.855Z,31.77
2022-11-09T14:45:32.058Z,36.00
2022-11-09T14:48:19.279Z,33.78
2022-11-09T14:51:07.314Z,36.40
2022-11-09T14:53:53.094Z,37.45
2022-11-09T14:56:39.512Z,35.30
2022-11-09T14:59:31.327Z,37.47
2022-11-09T15:02:21.470Z,34.00
2022-11-09T15:05:07.997Z,33.87
2022-11-09T15:07:53.948Z,35.95
2022-11-09T15:10:39.648Z,34.55
2022-11-09T15:13:36.538Z,35.97
2022-11-09T15:16:29.681Z,35.17
2022-11-09T15:19:22.853Z,32.30
2022-11-09T15:22:37.645Z,34.15
2022-11-09T15:25:27.944Z,36.55
2022-11-09T15:28:13.852Z,35.08
2022-11-09T15:30:59.905Z,34.92
2022-11-09T15:33:47.196Z,37.80
2022-11-09T15:36:35.694Z,40.15
2022-11-09T15:39:22.858Z,40.60
2022-11-09T15:42:11.844Z,37.38
2022-11-09T15:44:58.858Z,37.35
2022-11-09T15:47:53.186Z,43.07
2022-11-09T15:50:39.999Z,40.55
2022-11-09T15:53:26.074Z,42.65
2022-11-09T15:56:20.784Z,43.60
2022-11-09T15:59:06.885Z,43.92
2022-11-09T16:01:53.303Z,41.97
2022-11-09T16:04:39.851Z,43.72
2022-11-09T16:07:25.929Z,49.42
2022-11-09T16:10:13.466Z,38.50
2022-11-09T16:12:59.643Z,37.47
2022-11-09T16:15:45.433Z,44.57
2022-11-09T16:18:31.422Z,38.60
2022-11-09T16:21:17.544Z,38.90
2022-11-09T16:24:03.873Z,43.10
2022-11-09T16:26:50.465Z,39.85
2022-11-09T16:29:36.403Z,44.73
2022-11-09T16:32:22.315Z,42.75
2022-11-09T16:35:26.259Z,47.08
2022-11-09T16:38:13.445Z,42.88
2022-11-09T16:41:00.038Z,43.47
2022-11-09T16:43:46.622Z,44.23
2022-11-09T16:46:32.718Z,42.80
2022-11-09T16:49:18.665Z,38.58
2022-11-09T16:52:04.795Z,39.85
2022-11-09T16:54:50.576Z,38.00
2022-11-09T16:57:36.648Z,41.03
2022-11-09T17:00:27.657Z,37.80
2022-11-09T17:03:23.556Z,37.92
2022-11-09T17:06:11.296Z,37.35
2022-11-09T17:08:57.284Z,39.58
2022-11-09T17:11:43.562Z,39.97
2022-11-09T17:14:29.764Z,37.47
2022-11-09T17:17:21.183Z,40.42
2022-11-09T17:20:07.944Z,40.00
2022-11-09T17:22:54.537Z,44.92
2022-11-09T17:25:40.418Z,41.63
2022-11-09T17:28:27.149Z,44.38
2022-11-09T17:31:18.562Z,48.45
2022-11-09T17:34:04.523Z,45.42
2022-11-09T17:37:03.733Z,46.00
2022-11-09T17:39:50.658Z,41.73
2022-11-09T17:42:37.065Z,43.35
2022-11-09T17:45:23.470Z,42.53
2022-11-09T17:48:09.335Z,39.15
2022-11-09T17:50:56.043Z,48.40
2022-11-09T17:53:42.199Z,42.83
2022-11-09T17:56:28.881Z,42.80
2022-11-09T17:59:14.763Z,40.47
2022-11-09T18:02:00.608Z,41.22
2022-11-09T18:04:46.679Z,40.22
2022-11-09T18:07:32.719Z,39.97
2022-11-09T18:10:19.189Z,42.45
2022-11-09T18:13:05.556Z,38.17
2022-11-09T18:15:51.966Z,37.65
2022-11-09T18:18:37.900Z,38.13
2022-11-09T18:21:25.014Z,36.93
2022-11-09T18:24:10.985Z,34.97
2022-11-09T18:26:56.677Z,39.85
2022-11-09T18:29:42.551Z,36.10
2022-11-09T18:32:28.404Z,32.72
2022-11-09T18:35:14.603Z,37.47
2022-11-09T18:38:00.316Z,39.70
2022-11-09T18:40:46.223Z,33.65
2022-11-09T18:43:32.259Z,36.78
2022-11-09T18:46:19.481Z,32.42
2022-11-09T18:49:10.087Z,37.07
2022-11-09T18:51:59.165Z,35.10
2022-11-09T18:54:45.260Z,31.35
2022-11-09T18:57:31.081Z,30.65
2022-11-09T19:00:17.589Z,31.02
2022-11-09T19:03:03.340Z,36.07
2022-11-09T19:05:49.616Z,31.55
2022-11-09T19:08:54.075Z,31.50
2022-11-09T19:11:39.931Z,32.85
2022-11-09T19:14:27.094Z,31.63
2022-11-09T19:17:14.425Z,33.90
2022-11-09T19:20:00.143Z,33.60
2022-11-09T19:22:46.002Z,31.92
2022-11-09T19:25:31.887Z,37.70
2022-11-09T19:28:17.857Z,30.77
2022-11-09T19:31:03.909Z,32.43
2022-11-09T19:33:49.763Z,31.45
2022-11-09T19:36:35.609Z,29.00
2022-11-09T19:39:21.622Z,31.92
2022-11-09T19:42:07.267Z,35.45
2022-11-09T19:44:56.490Z,29.13
2022-11-09T19:47:42.750Z,27.95
2022-11-09T19:50:28.589Z,26.13
2022-11-09T19:53:14.379Z,27.33
2022-11-09T19:56:01.336Z,32.00
2022-11-09T19:58:55.349Z,30.03
2022-11-09T20:01:41.645Z,35.45
2022-11-09T20:04:28.254Z,33.50
2022-11-09T20:07:14.599Z,32.10
2022-11-09T20:10:02.050Z,31.45
2022-11-09T20:12:50.744Z,31.80
2022-11-09T20:15:37.008Z,34.50
2022-11-09T20:18:24.136Z,33.33
2022-11-09T20:21:09.958Z,33.05
2022-11-09T20:23:56.299Z,33.30
2022-11-09T20:26:43.995Z,37.43
2022-11-09T20:29:29.702Z,40.95
2022-11-09T20:32:20.390Z,38.45
2022-11-09T20:35:08.041Z,34.60
2022-11-09T20:37:53.840Z,37.10
2022-11-09T20:40:39.532Z,38.73
2022-11-09T20:43:26.019Z,38.88
2022-11-09T20:46:16.956Z,34.10
2022-11-09T20:49:03.341Z,32.30
2022-11-09T20:51:49.627Z,36.92
2022-11-09T20:54:35.464Z,34.30
2022-11-09T20:57:21.643Z,30.15
2022-11-09T21:00:08.247Z,31.77
2022-11-09T21:02:55.184Z,34.20
2022-11-09T21:05:40.843Z,37.15
2022-11-09T21:08:27.036Z,33.03
2022-11-09T21:11:13.496Z,37.80
2022-11-09T21:13:59.212Z,29.05
2022-11-09T21:16:45.274Z,34.65
2022-11-09T21:19:31.352Z,39.75
2022-11-09T21:22:17.356Z,32.80
2022-11-09T21:25:21.779Z,32.60
2022-11-09T21:28:32.850Z,37.50
2022-11-09T21:31:19.032Z,36.88
2022-11-09T21:34:04.728Z,31.90
2022-11-09T21:36:50.620Z,33.67
2022-11-09T21:39:36.504Z,37.40
2022-11-09T21:42:22.613Z,35.15
2022-11-09T21:45:09.178Z,31.15
2022-11-09T21:47:55.349Z,38.65
2022-11-09T21:50:41.268Z,31.90
2022-11-09T21:53:27.180Z,30.90
2022-11-09T21:56:13.109Z,32.35
2022-11-09T21:58:58.894Z,34.80
2022-11-09T22:01:44.802Z,33.35
2022-11-09T22:04:30.350Z,33.90
2022-11-09T22:07:16.272Z,34.42
2022-11-09T22:10:10.869Z,36.42
2022-11-09T22:13:15.657Z,35.50
2022-11-09T22:16:08.016Z,32.30
2022-11-09T22:19:12.705Z,30.50
2022-11-09T22:21:58.697Z,32.53
2022-11-09T22:24:44.589Z,31.50
2022-11-09T22:27:31.604Z,30.73
2022-11-09T22:30:17.439Z,31.65
2022-11-09T22:33:02.943Z,33.93
2022-11-09T22:35:58.760Z,37.40
2022-11-09T22:38:45.586Z,35.90
2022-11-09T22:41:31.212Z,35.55
2022-11-09T22:44:17.327Z,39.25
2022-11-09T22:47:02.997Z,38.07
2022-11-09T22:49:48.672Z,48.83
2022-11-09T22:52:34.415Z,41.22
2022-11-09T22:55:20.265Z,48.33
2022-11-09T22:58:06.291Z,35.95
2022-11-09T23:00:52.311Z,45.83
2022-11-09T23:03:37.949Z,48.25
2022-11-09T23:06:24.129Z,47.08
2022-11-09T23:09:10.179Z,51.92
2022-11-09T23:11:56.477Z,52.80
2022-11-09T23:15:00.914Z,49.43
2022-11-09T23:18:05.092Z,49.90
2022-11-09T23:20:50.975Z,49.97
2022-11-09T23:23:36.862Z,47.47
2022-11-09T23:26:23.376Z,47.60
2022-11-09T23:29:09.193Z,53.60
2022-11-09T23:31:57.289Z,47.33
2022-11-09T23:34:43.252Z,50.53
2022-11-09T23:37:29.019Z,46.92
2022-11-09T23:40:14.987Z,49.22
2022-11-09T23:43:04.318Z,51.13
2022-11-09T23:45:50.087Z,50.30
2022-11-09T23:48:35.975Z,49.13
2022-11-09T23:51:23.555Z,47.83
2022-11-09T23:54:09.540Z,43.17
2022-11-09T23:56:55.277Z,39.03
2022-11-09T23:59:40.983Z,40.85
